sensor_id;sensor_type;location;lat;lon;timestamp;temperature;humidity
72380;SHT30;60354;47.798;12.472;2022-09-30T00:01:25;9.38;91.29
72380;SHT30;60354;47.798;12.472;2022-09-30T00:03:55;9.38;91.37
72380;SHT30;60354;47.798;12.472;2022-09-30T00:06:22;9.38;91.45
72380;SHT30;60354;47.798;12.472;2022-09-30T00:08:48;9.39;91.43
72380;SHT30;60354;47.798;12.472;2022-09-30T00:11:19;9.44;91.07
72380;SHT30;60354;47.798;12.472;2022-09-30T00:13:47;9.45;90.83
72380;SHT30;60354;47.798;12.472;2022-09-30T00:16:14;9.38;90.69
72380;SHT30;60354;47.798;12.472;2022-09-30T00:18:41;9.44;90.58
72380;SHT30;60354;47.798;12.472;2022-09-30T00:21:08;9.41;90.67
72380;SHT30;60354;47.798;12.472;2022-09-30T00:23:35;9.41;91.80
72380;SHT30;60354;47.798;12.472;2022-09-30T00:26:10;9.36;91.11
72380;SHT30;60354;47.798;12.472;2022-09-30T00:28:36;9.39;91.40
72380;SHT30;60354;47.798;12.472;2022-09-30T00:31:05;9.41;90.93
72380;SHT30;60354;47.798;12.472;2022-09-30T00:33:33;9.44;90.82
72380;SHT30;60354;47.798;12.472;2022-09-30T00:35:58;9.39;91.07
72380;SHT30;60354;47.798;12.472;2022-09-30T00:38:24;9.42;91.06
72380;SHT30;60354;47.798;12.472;2022-09-30T00:40:50;9.41;91.12
72380;SHT30;60354;47.798;12.472;2022-09-30T00:43:38;9.41;91.28
72380;SHT30;60354;47.798;12.472;2022-09-30T00:46:12;9.38;91.16
72380;SHT30;60354;47.798;12.472;2022-09-30T00:48:41;9.44;91.22
72380;SHT30;60354;47.798;12.472;2022-09-30T00:51:06;9.41;91.38
72380;SHT30;60354;47.798;12.472;2022-09-30T00:53:46;9.39;91.75
72380;SHT30;60354;47.798;12.472;2022-09-30T00:56:23;9.41;91.99
72380;SHT30;60354;47.798;12.472;2022-09-30T00:58:55;9.38;92.06
72380;SHT30;60354;47.798;12.472;2022-09-30T01:01:24;9.30;91.43
72380;SHT30;60354;47.798;12.472;2022-09-30T01:03:54;9.34;92.45
72380;SHT30;60354;47.798;12.472;2022-09-30T01:06:23;9.38;92.44
72380;SHT30;60354;47.798;12.472;2022-09-30T01:08:49;9.34;92.04
72380;SHT30;60354;47.798;12.472;2022-09-30T01:11:15;9.34;92.12
72380;SHT30;60354;47.798;12.472;2022-09-30T01:13:41;9.27;91.96
72380;SHT30;60354;47.798;12.472;2022-09-30T01:16:44;9.25;92.27
72380;SHT30;60354;47.798;12.472;2022-09-30T01:30:53;9.23;91.16
72380;SHT30;60354;47.798;12.472;2022-09-30T01:33:28;9.27;91.50
72380;SHT30;60354;47.798;12.472;2022-09-30T01:36:28;9.27;91.50
72380;SHT30;60354;47.798;12.472;2022-09-30T01:50:46;9.30;92.44
72380;SHT30;60354;47.798;12.472;2022-09-30T01:56:11;9.25;91.98
72380;SHT30;60354;47.798;12.472;2022-09-30T01:58:49;9.24;92.36
72380;SHT30;60354;47.798;12.472;2022-09-30T02:01:42;9.21;93.09
72380;SHT30;60354;47.798;12.472;2022-09-30T02:04:25;9.17;92.91
72380;SHT30;60354;47.798;12.472;2022-09-30T02:06:56;9.18;93.11
72380;SHT30;60354;47.798;12.472;2022-09-30T02:09:37;9.13;92.84
72380;SHT30;60354;47.798;12.472;2022-09-30T02:12:07;9.13;92.99
72380;SHT30;60354;47.798;12.472;2022-09-30T02:14:40;9.08;92.25
72380;SHT30;60354;47.798;12.472;2022-09-30T02:19:42;9.11;91.78
72380;SHT30;60354;47.798;12.472;2022-09-30T02:22:13;9.05;91.76
72380;SHT30;60354;47.798;12.472;2022-09-30T02:24:41;9.08;92.42
72380;SHT30;60354;47.798;12.472;2022-09-30T02:27:17;9.03;91.76
72380;SHT30;60354;47.798;12.472;2022-09-30T02:29:47;9.07;92.34
72380;SHT30;60354;47.798;12.472;2022-09-30T02:32:29;9.17;91.94
72380;SHT30;60354;47.798;12.472;2022-09-30T02:34:59;9.18;91.54
72380;SHT30;60354;47.798;12.472;2022-09-30T02:37:30;9.20;91.93
72380;SHT30;60354;47.798;12.472;2022-09-30T02:42:30;9.17;92.99
72380;SHT30;60354;47.798;12.472;2022-09-30T02:45:01;9.20;92.51
72380;SHT30;60354;47.798;12.472;2022-09-30T02:47:35;9.18;92.10
72380;SHT30;60354;47.798;12.472;2022-09-30T02:50:50;9.20;91.73
72380;SHT30;60354;47.798;12.472;2022-09-30T02:53:19;9.25;92.28
72380;SHT30;60354;47.798;12.472;2022-09-30T02:58:29;9.30;91.59
72380;SHT30;60354;47.798;12.472;2022-09-30T03:00:56;9.34;91.35
72380;SHT30;60354;47.798;12.472;2022-09-30T03:03:26;9.30;91.38
72380;SHT30;60354;47.798;12.472;2022-09-30T03:05:53;9.28;91.25
72380;SHT30;60354;47.798;12.472;2022-09-30T03:08:19;9.31;91.24
72380;SHT30;60354;47.798;12.472;2022-09-30T03:10:49;9.31;91.41
72380;SHT30;60354;47.798;12.472;2022-09-30T03:16:05;9.30;91.56
72380;SHT30;60354;47.798;12.472;2022-09-30T03:34:59;9.34;92.92
72380;SHT30;60354;47.798;12.472;2022-09-30T03:37:44;9.34;92.16
72380;SHT30;60354;47.798;12.472;2022-09-30T03:40:19;9.34;92.10
72380;SHT30;60354;47.798;12.472;2022-09-30T03:42:55;9.35;91.87
72380;SHT30;60354;47.798;12.472;2022-09-30T03:45:29;9.32;91.67
72380;SHT30;60354;47.798;12.472;2022-09-30T03:48:00;9.35;91.27
72380;SHT30;60354;47.798;12.472;2022-09-30T03:50:27;9.38;91.41
72380;SHT30;60354;47.798;12.472;2022-09-30T03:52:53;9.38;91.33
72380;SHT30;60354;47.798;12.472;2022-09-30T03:55:20;9.39;90.96
72380;SHT30;60354;47.798;12.472;2022-09-30T03:57:47;9.36;91.05
72380;SHT30;60354;47.798;12.472;2022-09-30T04:00:14;9.35;91.54
72380;SHT30;60354;47.798;12.472;2022-09-30T04:02:39;9.39;91.35
72380;SHT30;60354;47.798;12.472;2022-09-30T04:05:06;9.30;90.94
72380;SHT30;60354;47.798;12.472;2022-09-30T04:07:33;9.31;91.31
72380;SHT30;60354;47.798;12.472;2022-09-30T04:09:59;9.35;92.33
72380;SHT30;60354;47.798;12.472;2022-09-30T04:12:24;9.27;92.15
72380;SHT30;60354;47.798;12.472;2022-09-30T04:14:50;9.21;92.14
72380;SHT30;60354;47.798;12.472;2022-09-30T04:17:16;9.20;92.72
72380;SHT30;60354;47.798;12.472;2022-09-30T04:19:42;9.20;92.59
72380;SHT30;60354;47.798;12.472;2022-09-30T04:22:07;9.25;93.10
72380;SHT30;60354;47.798;12.472;2022-09-30T04:24:33;9.24;92.76
72380;SHT30;60354;47.798;12.472;2022-09-30T04:26:59;9.24;92.42
72380;SHT30;60354;47.798;12.472;2022-09-30T04:29:24;9.30;92.70
72380;SHT30;60354;47.798;12.472;2022-09-30T04:31:50;9.31;92.91
72380;SHT30;60354;47.798;12.472;2022-09-30T04:34:15;9.32;92.27
72380;SHT30;60354;47.798;12.472;2022-09-30T04:36:41;9.32;91.87
72380;SHT30;60354;47.798;12.472;2022-09-30T04:39:06;9.35;91.76
72380;SHT30;60354;47.798;12.472;2022-09-30T04:41:32;9.36;91.77
72380;SHT30;60354;47.798;12.472;2022-09-30T04:43:58;9.31;91.65
72380;SHT30;60354;47.798;12.472;2022-09-30T04:46:24;9.34;91.74
72380;SHT30;60354;47.798;12.472;2022-09-30T04:48:50;9.34;91.93
72380;SHT30;60354;47.798;12.472;2022-09-30T04:51:17;9.35;92.25
72380;SHT30;60354;47.798;12.472;2022-09-30T04:53:43;9.34;91.89
72380;SHT30;60354;47.798;12.472;2022-09-30T04:56:09;9.35;91.57
72380;SHT30;60354;47.798;12.472;2022-09-30T04:58:35;9.35;91.41
72380;SHT30;60354;47.798;12.472;2022-09-30T05:01:09;9.36;92.31
72380;SHT30;60354;47.798;12.472;2022-09-30T05:03:35;9.34;91.70
72380;SHT30;60354;47.798;12.472;2022-09-30T05:06:02;9.38;92.68
72380;SHT30;60354;47.798;12.472;2022-09-30T05:08:28;9.44;92.25
72380;SHT30;60354;47.798;12.472;2022-09-30T05:10:57;9.39;91.93
72380;SHT30;60354;47.798;12.472;2022-09-30T05:13:35;9.38;91.73
72380;SHT30;60354;47.798;12.472;2022-09-30T05:16:01;9.32;91.97
72380;SHT30;60354;47.798;12.472;2022-09-30T05:18:27;9.30;91.80
72380;SHT30;60354;47.798;12.472;2022-09-30T05:20:54;9.34;91.85
72380;SHT30;60354;47.798;12.472;2022-09-30T05:23:22;9.36;91.75
72380;SHT30;60354;47.798;12.472;2022-09-30T05:25:49;9.32;91.57
72380;SHT30;60354;47.798;12.472;2022-09-30T05:28:14;9.32;91.57
72380;SHT30;60354;47.798;12.472;2022-09-30T05:30:40;9.38;92.34
72380;SHT30;60354;47.798;12.472;2022-09-30T05:33:08;9.35;91.84
72380;SHT30;60354;47.798;12.472;2022-09-30T05:35:34;9.36;92.42
72380;SHT30;60354;47.798;12.472;2022-09-30T05:38:01;9.24;92.64
72380;SHT30;60354;47.798;12.472;2022-09-30T05:40:28;9.27;92.59
72380;SHT30;60354;47.798;12.472;2022-09-30T05:42:56;9.27;92.51
72380;SHT30;60354;47.798;12.472;2022-09-30T05:45:22;9.24;92.12
72380;SHT30;60354;47.798;12.472;2022-09-30T05:47:54;9.30;92.60
72380;SHT30;60354;47.798;12.472;2022-09-30T05:50:21;9.31;92.43
72380;SHT30;60354;47.798;12.472;2022-09-30T05:52:47;9.35;92.68
72380;SHT30;60354;47.798;12.472;2022-09-30T05:55:13;9.39;91.98
72380;SHT30;60354;47.798;12.472;2022-09-30T05:57:38;9.35;91.42
72380;SHT30;60354;47.798;12.472;2022-09-30T06:00:05;9.36;92.23
72380;SHT30;60354;47.798;12.472;2022-09-30T06:02:37;9.35;92.23
72380;SHT30;60354;47.798;12.472;2022-09-30T06:05:09;9.36;92.07
72380;SHT30;60354;47.798;12.472;2022-09-30T06:07:36;9.39;92.69
72380;SHT30;60354;47.798;12.472;2022-09-30T06:10:07;9.41;92.42
72380;SHT30;60354;47.798;12.472;2022-09-30T06:12:37;9.39;92.31
72380;SHT30;60354;47.798;12.472;2022-09-30T06:15:03;9.41;91.79
72380;SHT30;60354;47.798;12.472;2022-09-30T06:17:28;9.36;90.95
72380;SHT30;60354;47.798;12.472;2022-09-30T06:19:54;9.42;91.56
72380;SHT30;60354;47.798;12.472;2022-09-30T06:22:21;9.46;91.31
72380;SHT30;60354;47.798;12.472;2022-09-30T06:24:49;9.51;91.43
72380;SHT30;60354;47.798;12.472;2022-09-30T06:27:15;9.56;90.96
72380;SHT30;60354;47.798;12.472;2022-09-30T06:29:40;9.59;90.72
72380;SHT30;60354;47.798;12.472;2022-09-30T06:32:06;9.65;90.71
72380;SHT30;60354;47.798;12.472;2022-09-30T06:34:32;9.65;90.42
72380;SHT30;60354;47.798;12.472;2022-09-30T06:36:57;9.63;90.23
72380;SHT30;60354;47.798;12.472;2022-09-30T06:39:23;9.69;90.58
72380;SHT30;60354;47.798;12.472;2022-09-30T06:41:51;9.66;90.48
72380;SHT30;60354;47.798;12.472;2022-09-30T06:44:23;9.66;90.58
72380;SHT30;60354;47.798;12.472;2022-09-30T06:46:48;9.75;90.60
72380;SHT30;60354;47.798;12.472;2022-09-30T06:49:14;9.78;90.69
72380;SHT30;60354;47.798;12.472;2022-09-30T06:51:40;9.81;90.34
72380;SHT30;60354;47.798;12.472;2022-09-30T06:54:06;9.85;90.18
72380;SHT30;60354;47.798;12.472;2022-09-30T06:56:33;9.87;90.04
72380;SHT30;60354;47.798;12.472;2022-09-30T06:58:58;9.96;89.85
72380;SHT30;60354;47.798;12.472;2022-09-30T07:01:24;10.02;89.91
72380;SHT30;60354;47.798;12.472;2022-09-30T07:03:50;10.07;89.87
72380;SHT30;60354;47.798;12.472;2022-09-30T07:06:22;10.16;89.41
72380;SHT30;60354;47.798;12.472;2022-09-30T07:08:49;10.32;88.98
72380;SHT30;60354;47.798;12.472;2022-09-30T07:11:15;10.44;88.48
72380;SHT30;60354;47.798;12.472;2022-09-30T07:13:42;10.47;87.22
72380;SHT30;60354;47.798;12.472;2022-09-30T07:16:09;10.57;87.07
72380;SHT30;60354;47.798;12.472;2022-09-30T07:18:36;10.63;86.87
72380;SHT30;60354;47.798;12.472;2022-09-30T07:21:02;10.61;87.14
72380;SHT30;60354;47.798;12.472;2022-09-30T07:23:28;10.67;87.16
72380;SHT30;60354;47.798;12.472;2022-09-30T07:25:58;10.68;86.82
72380;SHT30;60354;47.798;12.472;2022-09-30T07:28:32;10.78;86.80
72380;SHT30;60354;47.798;12.472;2022-09-30T07:31:00;10.84;87.07
72380;SHT30;60354;47.798;12.472;2022-09-30T07:33:28;10.86;86.44
72380;SHT30;60354;47.798;12.472;2022-09-30T07:35:56;10.86;86.42
72380;SHT30;60354;47.798;12.472;2022-09-30T07:38:25;10.96;86.49
72380;SHT30;60354;47.798;12.472;2022-09-30T07:41:00;10.94;85.68
72380;SHT30;60354;47.798;12.472;2022-09-30T07:43:28;11.09;86.39
72380;SHT30;60354;47.798;12.472;2022-09-30T07:46:08;11.11;85.94
72380;SHT30;60354;47.798;12.472;2022-09-30T07:48:35;11.22;86.22
72380;SHT30;60354;47.798;12.472;2022-09-30T07:51:07;11.26;85.00
72380;SHT30;60354;47.798;12.472;2022-09-30T07:53:34;11.30;84.12
72380;SHT30;60354;47.798;12.472;2022-09-30T07:56:07;11.40;85.81
72380;SHT30;60354;47.798;12.472;2022-09-30T07:58:33;11.40;83.68
72380;SHT30;60354;47.798;12.472;2022-09-30T08:00:58;11.40;84.34
72380;SHT30;60354;47.798;12.472;2022-09-30T08:03:24;11.11;83.77
72380;SHT30;60354;47.798;12.472;2022-09-30T08:05:50;11.32;83.74
72380;SHT30;60354;47.798;12.472;2022-09-30T08:08:16;11.36;85.06
72380;SHT30;60354;47.798;12.472;2022-09-30T08:10:41;11.25;84.61
72380;SHT30;60354;47.798;12.472;2022-09-30T08:13:08;11.30;84.43
72380;SHT30;60354;47.798;12.472;2022-09-30T08:15:34;11.36;85.32
72380;SHT30;60354;47.798;12.472;2022-09-30T08:17:59;11.42;85.52
72380;SHT30;60354;47.798;12.472;2022-09-30T08:20:26;11.59;84.06
72380;SHT30;60354;47.798;12.472;2022-09-30T08:22:55;12.13;82.28
72380;SHT30;60354;47.798;12.472;2022-09-30T08:25:21;12.29;82.06
72380;SHT30;60354;47.798;12.472;2022-09-30T08:27:47;12.62;81.95
72380;SHT30;60354;47.798;12.472;2022-09-30T08:30:13;12.31;80.43
72380;SHT30;60354;47.798;12.472;2022-09-30T08:32:38;12.15;80.87
72380;SHT30;60354;47.798;12.472;2022-09-30T08:35:05;12.29;80.26
72380;SHT30;60354;47.798;12.472;2022-09-30T08:37:30;12.22;81.57
72380;SHT30;60354;47.798;12.472;2022-09-30T08:39:56;12.17;79.99
72380;SHT30;60354;47.798;12.472;2022-09-30T08:42:33;12.14;78.70
72380;SHT30;60354;47.798;12.472;2022-09-30T08:45:21;12.32;77.74
72380;SHT30;60354;47.798;12.472;2022-09-30T08:50:52;12.35;80.26
72380;SHT30;60354;47.798;12.472;2022-09-30T08:53:29;12.44;79.44
72380;SHT30;60354;47.798;12.472;2022-09-30T08:55:57;12.41;79.09
72380;SHT30;60354;47.798;12.472;2022-09-30T08:58:29;12.36;78.84
72380;SHT30;60354;47.798;12.472;2022-09-30T09:03:50;12.24;78.61
72380;SHT30;60354;47.798;12.472;2022-09-30T09:09:11;12.05;80.79
72380;SHT30;60354;47.798;12.472;2022-09-30T09:21:20;12.05;81.23
72380;SHT30;60354;47.798;12.472;2022-09-30T09:23:48;12.15;81.31
72380;SHT30;60354;47.798;12.472;2022-09-30T09:26:15;12.41;79.34
72380;SHT30;60354;47.798;12.472;2022-09-30T09:29:05;12.59;79.57
72380;SHT30;60354;47.798;12.472;2022-09-30T09:31:32;12.73;80.46
72380;SHT30;60354;47.798;12.472;2022-09-30T09:34:09;12.62;78.75
72380;SHT30;60354;47.798;12.472;2022-09-30T09:36:47;12.63;79.92
72380;SHT30;60354;47.798;12.472;2022-09-30T09:39:38;12.24;81.30
72380;SHT30;60354;47.798;12.472;2022-09-30T09:43:13;12.22;82.17
72380;SHT30;60354;47.798;12.472;2022-09-30T09:45:35;12.14;83.25
72380;SHT30;60354;47.798;12.472;2022-09-30T09:48:07;12.14;83.15
72380;SHT30;60354;47.798;12.472;2022-09-30T09:53:33;12.04;83.24
72380;SHT30;60354;47.798;12.472;2022-09-30T09:56:12;12.18;83.58
72380;SHT30;60354;47.798;12.472;2022-09-30T10:01:34;12.42;80.69
72380;SHT30;60354;47.798;12.472;2022-09-30T10:19:49;12.52;81.44
72380;SHT30;60354;47.798;12.472;2022-09-30T10:22:17;12.50;81.43
72380;SHT30;60354;47.798;12.472;2022-09-30T10:24:43;12.70;81.20
72380;SHT30;60354;47.798;12.472;2022-09-30T10:29:52;12.67;80.07
72380;SHT30;60354;47.798;12.472;2022-09-30T10:32:18;12.96;80.46
72380;SHT30;60354;47.798;12.472;2022-09-30T10:34:44;12.87;80.09
72380;SHT30;60354;47.798;12.472;2022-09-30T10:37:14;13.02;81.48
72380;SHT30;60354;47.798;12.472;2022-09-30T10:39:42;12.95;80.65
72380;SHT30;60354;47.798;12.472;2022-09-30T10:42:20;12.90;79.31
72380;SHT30;60354;47.798;12.472;2022-09-30T10:44:56;12.90;80.81
72380;SHT30;60354;47.798;12.472;2022-09-30T10:47:25;12.85;79.79
72380;SHT30;60354;47.798;12.472;2022-09-30T10:50:07;12.93;79.63
72380;SHT30;60354;47.798;12.472;2022-09-30T10:52:46;12.99;79.09
72380;SHT30;60354;47.798;12.472;2022-09-30T10:57:47;12.79;80.31
72380;SHT30;60354;47.798;12.472;2022-09-30T11:00:21;12.80;80.57
72380;SHT30;60354;47.798;12.472;2022-09-30T11:03:04;12.95;78.87
72380;SHT30;60354;47.798;12.472;2022-09-30T11:05:40;13.02;79.20
72380;SHT30;60354;47.798;12.472;2022-09-30T11:13:30;13.20;78.23
72380;SHT30;60354;47.798;12.472;2022-09-30T11:18:48;13.37;78.39
72380;SHT30;60354;47.798;12.472;2022-09-30T11:21:59;13.37;77.92
72380;SHT30;60354;47.798;12.472;2022-09-30T11:24:41;13.35;77.01
72380;SHT30;60354;47.798;12.472;2022-09-30T11:30:01;13.47;77.10
72380;SHT30;60354;47.798;12.472;2022-09-30T11:35:15;13.61;78.15
72380;SHT30;60354;47.798;12.472;2022-09-30T11:46:12;13.35;77.05
72380;SHT30;60354;47.798;12.472;2022-09-30T11:49:08;13.20;77.69
72380;SHT30;60354;47.798;12.472;2022-09-30T11:55:10;13.23;77.74
72380;SHT30;60354;47.798;12.472;2022-09-30T12:00:15;13.28;78.02
72380;SHT30;60354;47.798;12.472;2022-09-30T12:05:26;13.10;76.52
72380;SHT30;60354;47.798;12.472;2022-09-30T12:08:09;13.24;77.43
72380;SHT30;60354;47.798;12.472;2022-09-30T12:10:43;13.31;78.67
72380;SHT30;60354;47.798;12.472;2022-09-30T12:15:53;13.37;78.67
72380;SHT30;60354;47.798;12.472;2022-09-30T12:21:03;13.34;78.36
72380;SHT30;60354;47.798;12.472;2022-09-30T12:23:42;13.37;78.17
72380;SHT30;60354;47.798;12.472;2022-09-30T12:26:10;13.38;78.30
72380;SHT30;60354;47.798;12.472;2022-09-30T12:28:44;13.37;77.68
72380;SHT30;60354;47.798;12.472;2022-09-30T12:39:57;13.02;77.58
72380;SHT30;60354;47.798;12.472;2022-09-30T12:48:36;12.97;80.14
72380;SHT30;60354;47.798;12.472;2022-09-30T12:51:03;13.07;80.50
72380;SHT30;60354;47.798;12.472;2022-09-30T12:53:33;13.08;79.47
72380;SHT30;60354;47.798;12.472;2022-09-30T12:56:03;13.07;79.80
72380;SHT30;60354;47.798;12.472;2022-09-30T12:58:40;13.04;79.55
72380;SHT30;60354;47.798;12.472;2022-09-30T13:01:20;13.00;79.71
72380;SHT30;60354;47.798;12.472;2022-09-30T13:06:26;13.08;77.75
72380;SHT30;60354;47.798;12.472;2022-09-30T13:09:16;13.13;78.63
72380;SHT30;60354;47.798;12.472;2022-09-30T13:14:34;13.14;79.37
72380;SHT30;60354;47.798;12.472;2022-09-30T13:30:00;13.11;77.73
72380;SHT30;60354;47.798;12.472;2022-09-30T13:32:36;13.23;78.05
72380;SHT30;60354;47.798;12.472;2022-09-30T13:35:34;13.27;77.42
72380;SHT30;60354;47.798;12.472;2022-09-30T13:40:42;13.31;75.95
72380;SHT30;60354;47.798;12.472;2022-09-30T13:43:11;13.35;75.96
72380;SHT30;60354;47.798;12.472;2022-09-30T13:45:47;13.40;77.08
72380;SHT30;60354;47.798;12.472;2022-09-30T13:48:17;13.44;76.60
72380;SHT30;60354;47.798;12.472;2022-09-30T13:50:50;13.45;75.96
72380;SHT30;60354;47.798;12.472;2022-09-30T13:53:39;13.45;76.34
72380;SHT30;60354;47.798;12.472;2022-09-30T13:56:07;13.51;76.31
72380;SHT30;60354;47.798;12.472;2022-09-30T14:04:33;13.61;76.50
72380;SHT30;60354;47.798;12.472;2022-09-30T14:10:55;13.59;77.02
72380;SHT30;60354;47.798;12.472;2022-09-30T14:21:33;13.23;78.25
72380;SHT30;60354;47.798;12.472;2022-09-30T14:24:02;13.17;78.63
72380;SHT30;60354;47.798;12.472;2022-09-30T14:31:47;13.14;79.71
72380;SHT30;60354;47.798;12.472;2022-09-30T14:34:14;13.10;78.38
72380;SHT30;60354;47.798;12.472;2022-09-30T14:36:42;13.17;79.17
72380;SHT30;60354;47.798;12.472;2022-09-30T14:39:17;13.27;79.36
72380;SHT30;60354;47.798;12.472;2022-09-30T14:41:56;13.24;79.59
72380;SHT30;60354;47.798;12.472;2022-09-30T14:44:24;13.23;79.14
72380;SHT30;60354;47.798;12.472;2022-09-30T14:46:51;13.24;80.28
72380;SHT30;60354;47.798;12.472;2022-09-30T14:49:25;13.10;79.04
72380;SHT30;60354;47.798;12.472;2022-09-30T14:51:57;13.14;79.24
72380;SHT30;60354;47.798;12.472;2022-09-30T14:54:26;13.17;80.10
72380;SHT30;60354;47.798;12.472;2022-09-30T14:56:54;13.11;79.60
72380;SHT30;60354;47.798;12.472;2022-09-30T14:59:25;13.24;79.43
72380;SHT30;60354;47.798;12.472;2022-09-30T15:01:58;13.18;79.27
72380;SHT30;60354;47.798;12.472;2022-09-30T15:04:32;13.27;79.56
72380;SHT30;60354;47.798;12.472;2022-09-30T15:07:00;13.23;79.16
72380;SHT30;60354;47.798;12.472;2022-09-30T15:12:25;13.23;79.23
72380;SHT30;60354;47.798;12.472;2022-09-30T15:14:54;13.24;80.14
72380;SHT30;60354;47.798;12.472;2022-09-30T15:17:26;13.14;79.61
72380;SHT30;60354;47.798;12.472;2022-09-30T15:19:52;13.10;80.31
72380;SHT30;60354;47.798;12.472;2022-09-30T15:22:21;13.04;80.62
72380;SHT30;60354;47.798;12.472;2022-09-30T15:24:48;13.08;80.54
72380;SHT30;60354;47.798;12.472;2022-09-30T15:32:25;12.87;80.23
72380;SHT30;60354;47.798;12.472;2022-09-30T15:34:51;12.85;80.66
72380;SHT30;60354;47.798;12.472;2022-09-30T15:37:25;12.82;81.77
72380;SHT30;60354;47.798;12.472;2022-09-30T15:39:54;12.83;81.36
72380;SHT30;60354;47.798;12.472;2022-09-30T15:42:42;12.79;81.28
72380;SHT30;60354;47.798;12.472;2022-09-30T15:48:00;12.72;81.54
72380;SHT30;60354;47.798;12.472;2022-09-30T15:50:49;12.73;81.48
72380;SHT30;60354;47.798;12.472;2022-09-30T15:53:30;12.75;81.47
72380;SHT30;60354;47.798;12.472;2022-09-30T15:56:22;12.83;82.07
72380;SHT30;60354;47.798;12.472;2022-09-30T15:59:04;12.90;82.42
72380;SHT30;60354;47.798;12.472;2022-09-30T16:01:43;12.92;82.04
72380;SHT30;60354;47.798;12.472;2022-09-30T16:14:57;12.89;82.42
72380;SHT30;60354;47.798;12.472;2022-09-30T16:17:32;12.93;82.90
72380;SHT30;60354;47.798;12.472;2022-09-30T16:22:56;12.96;82.59
72380;SHT30;60354;47.798;12.472;2022-09-30T16:25:30;13.00;82.83
72380;SHT30;60354;47.798;12.472;2022-09-30T16:28:11;13.00;82.27
72380;SHT30;60354;47.798;12.472;2022-09-30T16:33:10;12.89;82.90
72380;SHT30;60354;47.798;12.472;2022-09-30T16:35:40;12.79;83.74
72380;SHT30;60354;47.798;12.472;2022-09-30T16:38:08;12.66;84.49
72380;SHT30;60354;47.798;12.472;2022-09-30T16:40:36;12.66;84.53
72380;SHT30;60354;47.798;12.472;2022-09-30T16:43:03;12.63;84.78
72380;SHT30;60354;47.798;12.472;2022-09-30T16:45:29;12.57;85.06
72380;SHT30;60354;47.798;12.472;2022-09-30T16:47:59;12.63;84.89
72380;SHT30;60354;47.798;12.472;2022-09-30T16:52:57;12.55;85.40
72380;SHT30;60354;47.798;12.472;2022-09-30T16:55:24;12.34;86.00
72380;SHT30;60354;47.798;12.472;2022-09-30T16:57:51;12.26;86.17
72380;SHT30;60354;47.798;12.472;2022-09-30T17:00:17;12.17;86.77
72380;SHT30;60354;47.798;12.472;2022-09-30T17:02:47;12.13;86.71
72380;SHT30;60354;47.798;12.472;2022-09-30T17:05:20;12.05;87.22
72380;SHT30;60354;47.798;12.472;2022-09-30T17:07:46;11.93;87.31
72380;SHT30;60354;47.798;12.472;2022-09-30T17:10:29;11.87;87.48
72380;SHT30;60354;47.798;12.472;2022-09-30T17:12:55;11.81;87.44
72380;SHT30;60354;47.798;12.472;2022-09-30T17:15:22;11.83;87.51
72380;SHT30;60354;47.798;12.472;2022-09-30T17:17:48;11.87;86.86
72380;SHT30;60354;47.798;12.472;2022-09-30T17:20:13;11.93;87.05
72380;SHT30;60354;47.798;12.472;2022-09-30T17:22:39;11.98;86.28
72380;SHT30;60354;47.798;12.472;2022-09-30T17:25:06;12.02;86.04
72380;SHT30;60354;47.798;12.472;2022-09-30T17:27:31;12.04;85.85
72380;SHT30;60354;47.798;12.472;2022-09-30T17:29:57;12.07;85.72
72380;SHT30;60354;47.798;12.472;2022-09-30T17:32:22;11.99;85.42
72380;SHT30;60354;47.798;12.472;2022-09-30T17:34:48;11.88;85.56
72380;SHT30;60354;47.798;12.472;2022-09-30T17:37:13;11.88;85.33
72380;SHT30;60354;47.798;12.472;2022-09-30T17:39:39;11.91;85.56
72380;SHT30;60354;47.798;12.472;2022-09-30T17:42:05;11.86;85.35
72380;SHT30;60354;47.798;12.472;2022-09-30T17:44:49;11.64;86.82
72380;SHT30;60354;47.798;12.472;2022-09-30T17:47:15;11.46;86.66
72380;SHT30;60354;47.798;12.472;2022-09-30T17:49:40;11.40;87.17
72380;SHT30;60354;47.798;12.472;2022-09-30T17:52:06;11.29;86.95
72380;SHT30;60354;47.798;12.472;2022-09-30T17:54:31;11.11;87.49
72380;SHT30;60354;47.798;12.472;2022-09-30T17:56:58;11.12;87.87
72380;SHT30;60354;47.798;12.472;2022-09-30T17:59:24;11.12;87.31
72380;SHT30;60354;47.798;12.472;2022-09-30T18:01:52;11.11;86.70
72380;SHT30;60354;47.798;12.472;2022-09-30T18:04:19;11.14;86.72
72380;SHT30;60354;47.798;12.472;2022-09-30T18:06:46;11.23;86.01
72380;SHT30;60354;47.798;12.472;2022-09-30T18:09:12;11.27;86.11
72380;SHT30;60354;47.798;12.472;2022-09-30T18:11:37;11.19;86.61
72380;SHT30;60354;47.798;12.472;2022-09-30T18:14:03;11.15;87.22
72380;SHT30;60354;47.798;12.472;2022-09-30T18:16:30;11.14;88.28
72380;SHT30;60354;47.798;12.472;2022-09-30T18:19:03;11.18;87.66
72380;SHT30;60354;47.798;12.472;2022-09-30T18:21:29;11.23;87.70
72380;SHT30;60354;47.798;12.472;2022-09-30T18:23:55;11.32;87.55
72380;SHT30;60354;47.798;12.472;2022-09-30T18:26:22;11.30;87.92
72380;SHT30;60354;47.798;12.472;2022-09-30T18:28:49;11.30;87.90
72380;SHT30;60354;47.798;12.472;2022-09-30T18:31:17;11.35;87.76
72380;SHT30;60354;47.798;12.472;2022-09-30T18:33:56;11.35;87.50
72380;SHT30;60354;47.798;12.472;2022-09-30T18:36:23;11.29;87.99
72380;SHT30;60354;47.798;12.472;2022-09-30T18:38:48;11.23;87.70
72380;SHT30;60354;47.798;12.472;2022-09-30T18:41:14;11.30;87.64
72380;SHT30;60354;47.798;12.472;2022-09-30T18:43:40;11.33;87.75
72380;SHT30;60354;47.798;12.472;2022-09-30T18:46:10;11.35;87.82
72380;SHT30;60354;47.798;12.472;2022-09-30T18:48:37;11.32;88.29
72380;SHT30;60354;47.798;12.472;2022-09-30T18:51:04;11.29;88.49
72380;SHT30;60354;47.798;12.472;2022-09-30T18:53:31;11.26;88.72
72380;SHT30;60354;47.798;12.472;2022-09-30T18:56:02;11.26;88.75
72380;SHT30;60354;47.798;12.472;2022-09-30T18:58:27;11.23;88.28
72380;SHT30;60354;47.798;12.472;2022-09-30T19:00:59;11.25;88.04
72380;SHT30;60354;47.798;12.472;2022-09-30T19:03:27;11.23;88.36
72380;SHT30;60354;47.798;12.472;2022-09-30T19:05:53;11.25;88.95
72380;SHT30;60354;47.798;12.472;2022-09-30T19:08:18;11.22;88.91
72380;SHT30;60354;47.798;12.472;2022-09-30T19:10:44;11.20;88.91
72380;SHT30;60354;47.798;12.472;2022-09-30T19:13:11;11.16;88.85
72380;SHT30;60354;47.798;12.472;2022-09-30T19:15:37;11.16;89.33
72380;SHT30;60354;47.798;12.472;2022-09-30T19:18:03;11.19;89.41
72380;SHT30;60354;47.798;12.472;2022-09-30T19:20:30;11.23;89.27
72380;SHT30;60354;47.798;12.472;2022-09-30T19:22:56;11.18;89.32
72380;SHT30;60354;47.798;12.472;2022-09-30T19:25:21;11.16;89.04